Time;durP1;ratioP1;P1;durP2;ratioP2;P2;SDS_P1;SDS_P2;PMS_P1;PMS_P2;Temp;Humidity;BMP_temperature;BMP_pressure;BME280_temperature;BME280_humidity;BME280_pressure;Samples;Min_cycle;Max_cycle;Signal;HPM_P1;HPM_P2
2023/02/18 00:00:50;;;;;;;21.33;11.15;;;;;;;3.42;60.83;100032.53;4873795;29;20045;-95
2023/02/18 00:03:41;;;;;;;18.67;10.52;;;;;;;3.61;60.49;100046.88;4888055;29;20040;-95
2023/02/18 05:56:10;;;;;;;25.15;13.57;;;;;;;3.63;61.58;99853.09;5097188;23;20056;-94
2023/02/18 05:58:44;;;;;;;30.10;13.80;;;;;;;3.60;62.27;99824.25;5032259;28;20411;-93
2023/02/18 06:01:24;;;;;;;37.85;14.40;;;;;;;3.71;61.21;99822.75;4978679;28;20038;-93
2023/02/18 06:03:53;;;;;;;32.53;13.98;;;;;;;3.82;60.92;99820.25;4979609;28;20026;-94
2023/02/18 06:06:47;;;;;;;25.90;13.65;;;;;;;4.00;59.88;99800.84;4982188;28;20018;-94
2023/02/18 06:09:42;;;;;;;24.25;13.32;;;;;;;4.16;60.49;99798.72;5017014;28;20033;-94
2023/02/18 06:12:18;;;;;;;32.15;14.93;;;;;;;4.29;60.42;99795.16;5001092;28;20043;-93
2023/02/18 06:14:52;;;;;;;24.08;13.05;;;;;;;4.39;60.12;99792.81;5000551;28;20493;-93
2023/02/18 06:17:54;;;;;;;;;;;;;;;;;;;;;
2023/02/18 06:20:38;;;;;;;26.52;14.25;;;;;;;4.79;59.31;99795.13;4969557;28;20065;-95
2023/02/18 06:23:29;;;;;;;29.60;13.77;;;;;;;5.02;59.23;99811.31;4968897;28;20110;-95
2023/02/18 06:26:32;;;;;;;30.35;14.98;;;;;;;5.12;58.51;99813.47;4971693;28;20046;-96
2023/02/18 06:29:24;;;;;;;;;;;;;;;5.30;58.24;99820.66;4999808;28;20069;-96
2023/02/18 06:32:18;;;;;;;28.40;14.77;;;;;;;5.13;59.17;99792.94;4959633;29;19918;-95
2023/02/18 06:35:30;;;;;;;33.22;15.30;;;;;;;5.40;57.48;99806.81;4890351;29;20043;-95
2023/02/18 06:38:13;;;;;;;32.47;17.58;;;;;;;5.51;57.59;99802.56;5041859;23;20042;-95
2023/02/18 06:41:10;;;;;;;37.20;17.58;;;;;;;5.62;57.50;99796.44;4978459;28;20061;-95
2023/02/18 06:44:01;;;;;;;50.78;19.42;;;;;;;5.95;57.55;99817.41;4984101;28;20074;-96
2023/02/18 06:57:10;;;;;;;37.85;19.75;;;;;;;6.43;56.27;99780.91;5469799;23;20065;-95
2023/02/18 07:00:04;;;;;;;52.08;20.48;;;;;;;6.53;56.33;99783.81;4961226;29;20051;-95
2023/02/18 07:03:04;;;;;;;38.53;20.65;;;;;;;6.63;56.41;99783.25;4947088;29;20042;-95
2023/02/18 07:06:12;;;;;;;43.13;20.00;;;;;;;6.75;56.20;99777.91;5588298;23;20048;-94
2023/02/18 07:39:42;;;;;;;37.70;20.90;;;;;;;8.12;54.12;99813.88;5035577;28;20050;-94
2023/02/18 07:47:52;;;;;;;44.33;23.17;;;;;;;8.61;53.28;99805.31;5314949;23;20109;-95
2023/02/18 07:50:47;;;;;;;46.10;22.13;;;;;;;8.67;53.22;99796.28;4997361;28;20043;-93
2023/02/18 07:53:25;;;;;;;50.00;24.02;;;;;;;8.69;52.76;99778.91;4980533;28;20038;-95
2023/02/18 07:56:05;;;;;;;44.42;22.55;;;;;;;8.88;52.26;99792.88;4997260;28;20042;-94
2023/02/18 07:58:46;;;;;;;52.40;23.48;;;;;;;9.08;52.41;99802.25;4980847;28;20091;-95
2023/02/18 08:01:28;;;;;;;67.95;24.00;;;;;;;9.26;51.81;99806.53;4981391;28;20045;-94
2023/02/18 08:06:34;;;;;;;49.97;25.58;;;;;;;9.52;51.11;99799.59;5520762;23;20112;-94
2023/02/18 08:09:05;;;;;;;46.28;24.85;;;;;;;9.53;51.15;99779.72;4985880;28;20495;-94
2023/02/18 08:11:31;;;;;;;61.88;25.23;;;;;;;9.80;50.83;99795.88;4970677;28;20112;-93
2023/02/18 08:13:57;;;;;;;54.58;27.38;;;;;;;9.80;50.32;99784.31;4968549;28;20575;-94
2023/02/18 08:16:25;;;;;;;58.90;28.00;;;;;;;9.96;50.49;99778.03;4967979;28;20093;-93
2023/02/18 08:19:18;;;;;;;62.00;26.83;;;;;;;10.23;50.03;99796.84;4971525;28;20037;-96
2023/02/18 08:22:09;;;;;;;65.15;28.85;;;;;;;10.37;49.50;99789.16;5005253;28;20130;-95
2023/02/18 08:24:39;;;;;;;67.38;27.55;;;;;;;10.48;49.41;99773.94;5018715;28;20033;-96
2023/02/18 08:30:19;;;;;;;;;;;;;;;;;;;;;
2023/02/18 08:33:36;;;;;;;44.47;25.85;;;;;;;10.95;45.49;99799.28;5005788;28;20053;-95
2023/02/18 08:39:53;;;;;;;55.47;25.63;;;;;;;11.32;44.54;99793.81;4976346;28;20050;-93
2023/02/18 08:42:54;;;;;;;62.83;29.83;;;;;;;11.39;44.91;99758.50;4957168;29;20051;-94
2023/02/18 08:45:52;;;;;;;68.32;28.13;;;;;;;11.67;44.57;99787.75;4875656;29;20024;-94
2023/02/18 08:48:36;;;;;;;48.40;26.85;;;;;;;11.75;44.67;99794.50;4900808;29;20067;-96
2023/02/18 08:51:31;;;;;;;58.95;28.25;;;;;;;11.72;44.88;99754.56;4904195;29;20040;-95
2023/02/18 08:54:25;;;;;;;56.42;27.70;;;;;;;11.83;44.70;99753.53;4871878;29;20068;-96
2023/02/18 09:22:41;;;;;;;;;;;;;;;;;;;;;
2023/02/18 10:09:47;;;;;;;5.07;2.33;;;;;;;16.47;31.95;99769.66;5012840;28;20022;-94
2023/02/18 10:12:20;;;;;;;5.03;2.15;;;;;;;16.35;31.99;99757.34;4982161;28;20033;-95
2023/02/18 10:14:54;;;;;;;6.15;2.45;;;;;;;16.41;31.74;99752.63;5002959;28;20037;-94
2023/02/18 10:17:28;;;;;;;5.45;2.47;;;;;;;16.17;31.82;99753.56;4997900;28;20046;-94
2023/02/18 10:19:54;;;;;;;5.32;2.55;;;;;;;16.25;32.20;99765.66;4993489;28;20022;-93
2023/02/18 10:22:38;;;;;;;4.50;2.35;;;;;;;16.14;32.07;99734.31;4980064;28;20094;-95
2023/02/18 10:25:40;;;;;;;3.53;2.05;;;;;;;16.33;31.95;99742.44;5075424;23;20060;-96
2023/02/18 10:28:16;;;;;;;7.72;2.35;;;;;;;16.34;31.99;99733.97;5005852;28;20057;-96
2023/02/18 11:13:55;;;;;;;9.25;3.38;;;;;;;16.67;31.17;99676.06;5000583;28;20069;-93
2023/02/18 11:16:22;;;;;;;9.07;3.17;;;;;;;16.57;30.52;99679.78;4985159;28;20078;-93
2023/02/18 11:18:51;;;;;;;11.63;3.38;;;;;;;16.38;30.68;99668.97;4976890;28;20039;-96
2023/02/18 11:21:39;;;;;;;8.05;3.35;;;;;;;16.53;30.58;99671.41;4958039;29;20066;-96
2023/02/18 11:25:07;;;;;;;11.93;3.72;;;;;;;16.30;30.94;99631.63;4955701;28;20042;-96
2023/02/18 11:36:01;;;;;;;7.38;3.30;;;;;;;16.60;31.63;99648.44;5653052;23;20078;-96
2023/02/18 11:39:21;;;;;;;7.10;3.60;;;;;;;16.51;30.96;99635.56;5011003;28;20039;-95
2023/02/18 11:42:10;;;;;;;9.57;3.22;;;;;;;16.66;30.98;99639.88;4991686;28;20042;-96
2023/02/18 11:45:01;;;;;;;7.65;3.63;;;;;;;16.65;30.75;99640.22;4981677;28;20042;-96
2023/02/18 11:47:42;;;;;;;9.02;4.28;;;;;;;16.79;31.55;99649.16;5000431;28;20038;-96
2023/02/18 11:50:45;;;;;;;6.72;3.83;;;;;;;16.80;31.36;99649.97;4953483;28;20118;-95
2023/02/18 11:59:01;;;;;;;7.80;3.15;;;;;;;16.80;32.53;99664.38;5034241;28;20050;-94
2023/02/18 12:02:04;;;;;;;5.75;3.03;;;;;;;16.66;32.77;99650.75;4971649;29;20054;-94
2023/02/18 12:15:15;;;;;;;8.85;3.35;;;;;;;16.67;33.27;99668.69;5012033;28;20050;-96
2023/02/18 12:18:04;;;;;;;6.05;2.80;;;;;;;16.56;33.91;99662.66;4976955;28;20097;-95
2023/02/18 12:21:17;;;;;;;5.30;2.90;;;;;;;16.56;34.30;99656.44;4995781;28;20042;-95
2023/02/18 12:24:57;;;;;;;;;;;;;;;;;;;;;
2023/02/18 13:17:40;;;;;;;4.50;1.92;;;;;;;16.75;38.52;99607.38;4971797;28;20070;-95
2023/02/18 13:20:39;;;;;;;1.98;1.33;;;;;;;16.72;39.09;99608.78;5095976;23;20065;-96
2023/02/18 13:23:53;;;;;;;3.30;1.63;;;;;;;16.60;39.36;99581.31;4980701;28;20030;-96
2023/02/18 13:26:32;;;;;;;6.15;2.45;;;;;;;16.69;39.33;99595.78;4983134;28;20026;-96
2023/02/18 13:29:38;;;;;;;3.15;1.90;;;;;;;16.73;39.67;99607.69;5004565;23;20509;-94
2023/02/18 13:43:52;;;;;;;5.07;2.72;;;;;;;16.37;40.01;99574.94;5109830;23;20060;-96
2023/02/18 13:46:31;;;;;;;2.80;2.00;;;;;;;16.42;39.56;99574.88;4954472;29;20035;-95
2023/02/18 13:49:41;;;;;;;3.47;2.30;;;;;;;16.45;39.84;99589.75;4962316;28;20045;-96
2023/02/18 13:52:21;;;;;;;6.35;2.25;;;;;;;16.48;39.57;99592.69;4993289;28;20078;-96
2023/02/18 14:08:14;;;;;;;7.00;2.50;;;;;;;16.38;39.90;99563.00;4934885;28;20042;-95
2023/02/18 14:12:03;;;;;;;4.18;2.47;;;;;;;16.42;40.42;99572.16;4931869;29;20075;-96
2023/02/18 14:14:47;;;;;;;15.00;4.70;;;;;;;16.29;39.70;99556.63;4941544;28;20062;-95
2023/02/18 14:17:29;;;;;;;5.28;2.45;;;;;;;16.40;40.23;99579.00;4935637;28;20107;-96
2023/02/18 14:20:43;;;;;;;5.82;2.50;;;;;;;16.44;40.23;99571.84;4965449;28;20011;-96
2023/02/18 14:24:15;;;;;;;4.85;2.70;;;;;;;16.25;41.06;99580.09;4970974;28;20034;-95
2023/02/18 14:27:07;;;;;;;8.88;3.85;;;;;;;16.15;40.79;99559.38;4958774;28;20424;-95
2023/02/18 14:29:43;;;;;;;5.68;2.40;;;;;;;16.14;40.97;99555.03;4999720;28;20080;-95
2023/02/18 14:32:18;;;;;;;4.85;2.72;;;;;;;16.11;40.56;99553.72;5002146;28;20033;-96
2023/02/18 14:35:17;;;;;;;6.43;3.42;;;;;;;16.27;40.75;99573.25;4986487;28;20030;-94
2023/02/18 14:38:31;;;;;;;2.90;1.63;;;;;;;16.21;40.80;99576.34;5017796;28;20038;-94
2023/02/18 14:48:33;;;;;;;4.57;1.60;;;;;;;15.98;40.88;99578.13;5002272;28;20444;-95
2023/02/18 14:51:03;;;;;;;3.63;2.28;;;;;;;15.83;40.98;99547.44;4976914;28;20018;-96
2023/02/18 14:53:37;;;;;;;3.33;1.58;;;;;;;15.75;40.89;99559.81;4969182;28;20015;-96
2023/02/18 14:56:22;;;;;;;4.80;1.40;;;;;;;15.67;41.59;99557.75;5101738;23;20053;-94
2023/02/18 14:59:03;;;;;;;3.78;1.33;;;;;;;15.64;41.33;99557.53;5004524;28;20030;-95
2023/02/18 15:01:39;;;;;;;2.80;1.52;;;;;;;15.81;41.33;99590.38;5001173;28;20049;-96
2023/02/18 15:04:26;;;;;;;3.92;1.63;;;;;;;15.57;41.38;99558.72;5014508;28;20033;-95
2023/02/18 15:07:03;;;;;;;2.40;1.48;;;;;;;15.61;41.75;99569.00;4949046;29;20051;-95
2023/02/18 15:10:04;;;;;;;3.72;2.10;;;;;;;15.38;42.17;99557.13;4951212;29;20066;-96
2023/02/18 15:12:57;;;;;;;5.45;2.30;;;;;;;15.37;42.11;99561.75;5096848;23;20062;-93
2023/02/18 15:15:23;;;;;;;5.63;2.33;;;;;;;15.30;41.93;99555.91;4973503;28;20036;-95
2023/02/18 15:17:55;;;;;;;3.08;1.75;;;;;;;15.40;41.87;99582.88;4977711;28;20033;-95
2023/02/18 15:20:56;;;;;;;4.05;1.77;;;;;;;15.25;42.36;99577.66;4983010;28;20022;-95
2023/02/18 15:23:21;;;;;;;4.47;2.22;;;;;;;15.12;42.25;99562.94;5015606;28;20026;-94
2023/02/18 15:28:24;;;;;;;7.05;1.90;;;;;;;15.05;42.04;99554.38;5484337;23;20088;-95
2023/02/18 15:30:52;;;;;;;4.18;2.30;;;;;;;14.95;42.30;99569.69;4973758;28;20391;-95
2023/02/18 15:33:19;;;;;;;5.88;2.50;;;;;;;14.94;42.48;99578.94;4974885;28;20025;-95
2023/02/18 15:35:45;;;;;;;2.90;2.00;;;;;;;14.83;42.50;99574.72;4992753;28;20029;-94
2023/02/18 15:43:36;;;;;;;;;;;;;;;;;;;;;
2023/02/18 15:46:15;;;;;;;3.95;2.58;;;;;;;14.63;42.65;99559.56;4925082;28;20057;-96
2023/02/18 15:49:18;;;;;;;4.35;2.60;;;;;;;14.52;42.65;99545.28;4924204;28;20065;-95
2023/02/18 15:52:44;;;;;;;3.45;2.20;;;;;;;14.49;42.12;99554.00;4967470;28;20068;-96
2023/02/18 15:56:07;;;;;;;4.93;2.97;;;;;;;14.63;41.98;99573.13;5018217;28;20054;-96
2023/02/18 15:59:23;;;;;;;5.70;2.75;;;;;;;14.47;42.17;99572.44;4992777;28;20050;-95
2023/02/18 16:02:03;;;;;;;4.30;2.67;;;;;;;14.29;42.60;99557.75;4978217;28;20061;-95
2023/02/18 16:04:53;;;;;;;5.20;2.70;;;;;;;14.25;42.22;99556.72;4977165;28;20099;-95
2023/02/18 16:07:57;;;;;;;5.72;2.75;;;;;;;14.13;42.65;99542.75;4981989;28;20042;-96
2023/02/18 16:11:10;;;;;;;5.03;2.80;;;;;;;14.17;43.02;99564.66;5136189;23;20061;-94
2023/02/18 16:14:23;;;;;;;3.88;2.47;;;;;;;14.03;42.84;99556.41;5034008;28;20037;-96
2023/02/18 16:17:07;;;;;;;3.10;2.25;;;;;;;13.94;42.67;99557.06;4974545;29;20114;-96
2023/02/18 16:19:46;;;;;;;7.68;2.75;;;;;;;13.94;42.82;99559.78;4954466;29;20035;-95
2023/02/18 16:22:33;;;;;;;10.85;3.40;;;;;;;14.08;42.62;99583.44;4944376;29;20043;-96
2023/02/18 16:25:36;;;;;;;5.35;2.65;;;;;;;14.06;42.53;99580.22;4970343;29;20011;-96
2023/02/18 16:28:21;;;;;;;4.32;2.70;;;;;;;14.00;42.60;99565.91;4972158;29;20023;-95
2023/02/18 16:31:01;;;;;;;11.77;4.97;;;;;;;13.97;42.45;99563.00;4940118;28;20031;-96
2023/02/18 16:33:29;;;;;;;5.20;3.15;;;;;;;14.04;42.52;99577.00;4926224;29;20008;-96
2023/02/18 16:35:58;;;;;;;6.57;3.33;;;;;;;14.01;42.48;99578.38;4924452;29;20047;-95
2023/02/18 16:38:54;;;;;;;8.30;2.97;;;;;;;14.03;42.79;99586.19;4926682;29;20043;-95
2023/02/18 16:44:32;;;;;;;7.47;3.47;;;;;;;13.99;42.59;99577.06;4914007;29;20041;-95
2023/02/18 16:53:23;;;;;;;5.93;3.28;;;;;;;13.73;43.40;99564.53;4932687;28;20106;-95
2023/02/18 16:56:02;;;;;;;7.75;3.80;;;;;;;13.74;43.41;99570.78;4982617;28;20031;-95
2023/02/18 16:58:42;;;;;;;6.28;4.03;;;;;;;13.60;43.01;99564.41;4979006;28;20022;-94
2023/02/18 17:01:31;;;;;;;10.55;4.35;;;;;;;13.61;43.44;99576.84;4937259;29;20035;-96
2023/02/18 17:04:56;;;;;;;7.57;4.13;;;;;;;13.49;43.23;99559.09;4907237;29;20040;-96
2023/02/18 17:13:00;;;;;;;19.55;8.13;;;;;;;13.43;43.21;99568.34;5027775;28;20042;-95
2023/02/18 17:20:58;;;;;;;18.58;7.75;;;;;;;13.31;43.39;99578.69;5039962;23;20085;-95
2023/02/18 17:23:25;;;;;;;11.60;7.25;;;;;;;13.19;43.88;99578.22;4978626;28;20042;-96
2023/02/18 17:26:00;;;;;;;12.70;5.00;;;;;;;13.19;43.40;99573.59;4965952;28;20048;-95
2023/02/18 17:28:40;;;;;;;9.48;3.72;;;;;;;13.17;42.98;99583.09;5100162;23;20070;-94
2023/02/18 17:31:46;;;;;;;24.42;6.40;;;;;;;13.27;42.95;99591.94;4959759;28;20128;-96
2023/02/18 18:29:28;;;;;;;10.02;3.95;;;;;;;12.16;45.26;99585.94;5020970;28;20034;-95
2023/02/18 18:35:41;;;;;;;10.45;3.95;;;;;;;12.25;44.85;99595.13;5181185;23;20052;-95
2023/02/18 18:39:05;;;;;;;6.38;3.47;;;;;;;12.30;44.70;99601.28;4999914;28;20023;-95
2023/02/18 18:49:29;;;;;;;5.75;3.63;;;;;;;12.33;45.03;99602.66;5000389;28;20037;-95
2023/02/18 18:52:45;;;;;;;13.38;4.75;;;;;;;12.27;45.77;99607.25;5192195;23;20088;-95
2023/02/18 18:56:02;;;;;;;8.98;4.63;;;;;;;12.20;45.97;99608.63;4974161;28;20050;-95
2023/02/18 18:58:47;;;;;;;7.57;4.57;;;;;;;12.01;46.51;99592.19;5004596;28;20076;-94
2023/02/18 19:02:05;;;;;;;14.32;6.95;;;;;;;11.89;46.52;99582.50;4959187;28;20026;-95
2023/02/18 19:34:25;;;;;;;16.92;8.63;;;;;;;11.27;48.95;99605.91;5019004;28;20077;-94
2023/02/18 19:37:34;;;;;;;18.90;10.55;;;;;;;11.37;49.35;99636.66;4985381;28;20034;-95
2023/02/18 19:50:57;;;;;;;15.97;8.53;;;;;;;10.95;49.44;99592.63;4999014;28;20030;-96
2023/02/18 19:54:30;;;;;;;17.42;8.80;;;;;;;11.05;49.94;99621.50;4898491;29;20287;-95
2023/02/18 20:33:37;;;;;;;7.68;5.32;;;;;;;10.56;49.01;99579.56;5036577;28;20060;-95
2023/02/18 20:36:16;;;;;;;12.00;5.18;;;;;;;10.60;49.22;99579.84;5018924;28;20026;-96
2023/02/18 20:39:12;;;;;;;13.68;5.38;;;;;;;10.65;48.71;99583.38;4955737;28;20065;-95
2023/02/18 20:41:50;;;;;;;17.40;7.15;;;;;;;10.52;48.52;99565.00;4963285;28;20035;-95
2023/02/18 20:44:44;;;;;;;14.88;5.93;;;;;;;10.68;49.44;99584.72;4947474;29;20031;-95
2023/02/18 21:00:34;;;;;;;7.70;4.45;;;;;;;10.82;46.47;99568.91;5984041;23;21353;-95
2023/02/18 21:31:54;;;;;;;12.30;5.88;;;;;;;10.96;46.96;99567.31;5130288;23;20054;-95
2023/02/18 21:34:41;;;;;;;12.70;6.28;;;;;;;10.91;46.96;99551.13;5000535;28;20482;-94
2023/02/18 21:37:34;;;;;;;10.65;6.63;;;;;;;10.88;46.82;99562.44;5013441;28;20042;-94
2023/02/18 21:40:19;;;;;;;13.45;5.70;;;;;;;10.84;46.78;99553.28;5000346;28;20034;-94
2023/02/18 21:42:59;;;;;;;11.57;6.68;;;;;;;10.76;47.24;99548.41;5002284;28;20116;-95
2023/02/18 21:46:05;;;;;;;13.00;6.05;;;;;;;10.71;47.33;99531.16;5004740;28;20018;-95
2023/02/18 21:55:03;;;;;;;14.82;6.20;;;;;;;10.73;48.12;99538.97;5006364;28;20046;-95
